map of YQR home
YQR - Airport
Location
City:  Regina, Saskatchewan, Canada
Name:Regina International Airport
ICAO:CYQR
IATA:YQR

Details
Type:Airport (Airfield)
Use:Public/Civil, International (customs port of entry)
Latitude:5025'56"N (50.432222)
Longitude:10439'58"W (-104.666110)
Elevation:1895 ft (578 m)
Variation:8.78E (WMM2015 magnetic declination)
-0.11 annual change
Runways:2
Longest:7901 ft (2408 m), paved

Time
Time Zone:UTC-6
Local Time:

Weather
METAR:CYQR 210700Z 00000KT 15SM SKC 08/03 A3027 RMK SLP262
TAF:CYQR 210538Z 2106/2206 VRB03KT P6SM SKC
BECMG 2113/2115 18006KT
FM211800 28012KT P6SM SCT180
BECMG 2200/2202 23010KT
RMK NXT FCST BY 211200Z

Related Locations
Nearby:
Farthest:YWKS: 10750 mi / 17300 km
Wilkins Runway (Casey), Upper Peterson Glacier, AQ

Find:

   beyond  
but within

Other Information
Maps:
NOTAMs:
Links:
Sources:

  
  • flag of Canada
  • flag of Saskatchewan
  

Airport Diagram

Airport diagram for YQR

Airport diagram PDF

Sectional Chart

Flight Planning
at skyvector.com

Satellite Image

Google Maps Satellite view

 

Copyright © 2004-2018 Karl L. Swartz. All rights reserved.
The Great Circle Mapper name and logo are trademarks of the Great Circle Mapper.
All other trademarks mentioned herein belong to their respective owners.
Please see credits for attibutions and further copyright information.

  Follow gcmap on Facebook Follow gcmap on Twitter Follow gcmap on Google+ GCmap on LinkedIn

hCard Microformat

Geo Microformat